createdAt,value
2022-12-02T00:00:32.826Z,1029.33
2022-12-02T00:01:32.744Z,1029.29
2022-12-02T00:02:32.902Z,1029.30
2022-12-02T00:03:32.849Z,1029.29
2022-12-02T00:04:32.729Z,1029.29
2022-12-02T00:05:32.777Z,1029.26
2022-12-02T00:06:32.698Z,1029.26
2022-12-02T00:07:32.739Z,1029.23
2022-12-02T00:08:32.682Z,1029.30
2022-12-02T00:09:32.658Z,1029.25
2022-12-02T00:10:32.655Z,1029.32
2022-12-02T00:11:32.679Z,1029.28
2022-12-02T00:12:32.619Z,1029.24
2022-12-02T00:13:32.621Z,1029.28
2022-12-02T00:14:32.615Z,1029.17
2022-12-02T00:15:32.598Z,1029.24
2022-12-02T00:16:32.691Z,1029.25
2022-12-02T00:17:32.568Z,1029.26
2022-12-02T00:18:32.568Z,1029.27
2022-12-02T00:19:32.550Z,1029.28
2022-12-02T00:20:32.544Z,1029.26
2022-12-02T00:21:32.528Z,1029.27
2022-12-02T00:22:32.600Z,1029.25
2022-12-02T00:23:32.510Z,1029.24
2022-12-02T00:24:32.497Z,1029.27
2022-12-02T00:25:32.490Z,1029.24
2022-12-02T00:26:32.508Z,1029.25
2022-12-02T00:27:32.449Z,1029.27
2022-12-02T00:28:32.480Z,1029.23
2022-12-02T00:29:32.440Z,1029.19
2022-12-02T00:30:32.440Z,1029.18
2022-12-02T00:31:32.447Z,1029.22
2022-12-02T00:32:32.435Z,1029.19
2022-12-02T00:33:32.462Z,1029.19
2022-12-02T00:34:32.392Z,1029.25
2022-12-02T00:35:32.380Z,1029.25
2022-12-02T00:36:32.360Z,1029.29
2022-12-02T00:37:32.361Z,1029.19
2022-12-02T00:38:32.378Z,1029.29
2022-12-02T00:39:32.340Z,1029.23
2022-12-02T00:40:32.340Z,1029.28
2022-12-02T00:41:32.313Z,1029.25
2022-12-02T00:42:32.308Z,1029.26
2022-12-02T00:43:32.330Z,1029.26
2022-12-02T00:44:32.294Z,1029.26
2022-12-02T00:45:32.321Z,1029.22
2022-12-02T00:46:32.291Z,1029.30
2022-12-02T00:47:32.253Z,1029.28
2022-12-02T00:48:32.239Z,1029.31
2022-12-02T00:49:32.280Z,1029.30
2022-12-02T00:50:32.224Z,1029.30
2022-12-02T00:51:32.227Z,1029.30
2022-12-02T00:52:32.197Z,1029.29
2022-12-02T00:53:32.185Z,1029.36
2022-12-02T00:54:32.252Z,1029.34
2022-12-02T00:55:32.168Z,1029.25
2022-12-02T00:56:32.166Z,1029.28
2022-12-02T00:57:32.155Z,1029.33
2022-12-02T00:58:32.127Z,1029.29
2022-12-02T00:59:32.114Z,1029.24
2022-12-02T01:00:32.284Z,1029.28
2022-12-02T01:01:32.166Z,1029.28
2022-12-02T01:02:32.141Z,1029.31
2022-12-02T01:03:32.109Z,1029.31
2022-12-02T01:04:32.074Z,1029.33
2022-12-02T01:05:32.107Z,1029.28
2022-12-02T01:06:32.039Z,1029.28
2022-12-02T01:07:32.106Z,1029.25
2022-12-02T01:08:32.029Z,1029.27
2022-12-02T01:09:32.018Z,1029.27
2022-12-02T01:10:32.052Z,1029.22
2022-12-02T01:11:32.013Z,1029.24
2022-12-02T01:12:31.973Z,1029.15
2022-12-02T01:13:31.978Z,1029.26
2022-12-02T01:14:31.947Z,1029.28
2022-12-02T01:15:32.002Z,1029.18
2022-12-02T01:16:32.034Z,1029.30
2022-12-02T01:17:31.931Z,1029.25
2022-12-02T01:18:31.909Z,1029.24
2022-12-02T01:19:31.922Z,1029.25
2022-12-02T01:20:31.932Z,1029.26
2022-12-02T01:21:31.901Z,1029.27
2022-12-02T01:22:31.861Z,1029.23
2022-12-02T01:23:31.877Z,1029.28
2022-12-02T01:24:31.860Z,1029.28
2022-12-02T01:25:31.918Z,1029.30
2022-12-02T01:26:31.833Z,1029.29
2022-12-02T01:27:31.819Z,1029.31
2022-12-02T01:28:31.811Z,1029.27
2022-12-02T01:29:31.810Z,1029.28
2022-12-02T01:30:31.787Z,1029.22
2022-12-02T01:31:31.856Z,1029.31
2022-12-02T01:32:31.762Z,1029.25
2022-12-02T01:33:31.771Z,1029.30
2022-12-02T01:34:31.780Z,1029.33
2022-12-02T01:35:31.740Z,1029.26
2022-12-02T01:36:31.792Z,1029.25
2022-12-02T01:37:31.720Z,1029.29
2022-12-02T01:38:31.703Z,1029.25
2022-12-02T01:39:31.691Z,1029.25
2022-12-02T01:40:31.691Z,1029.17
2022-12-02T01:41:31.704Z,1029.19
2022-12-02T01:42:31.672Z,1029.15
2022-12-02T01:43:31.665Z,1029.13
2022-12-02T01:44:31.631Z,1029.16
2022-12-02T01:45:31.766Z,1029.16
2022-12-02T01:46:31.627Z,1029.17
2022-12-02T01:47:31.666Z,1029.11
2022-12-02T01:48:31.623Z,1029.11
2022-12-02T01:49:31.596Z,1029.13
2022-12-02T01:50:31.599Z,1029.12
2022-12-02T01:51:31.576Z,1029.12
2022-12-02T01:52:31.597Z,1029.09
2022-12-02T01:53:31.538Z,1029.06
2022-12-02T01:54:31.527Z,1029.14
2022-12-02T01:55:31.527Z,1029.10
2022-12-02T01:56:31.505Z,1029.17
2022-12-02T01:57:31.516Z,1029.14
2022-12-02T01:58:31.524Z,1029.12
2022-12-02T01:59:31.494Z,1029.14
2022-12-02T02:00:31.488Z,1029.15
2022-12-02T02:01:31.558Z,1029.13
2022-12-02T02:02:31.501Z,1029.10
2022-12-02T02:03:31.447Z,1029.08
2022-12-02T02:04:31.467Z,1029.07
2022-12-02T02:05:31.466Z,1029.08
2022-12-02T02:06:31.415Z,1029.05
2022-12-02T02:07:31.469Z,1029.08
2022-12-02T02:08:31.390Z,1029.08
2022-12-02T02:09:31.382Z,1029.07
2022-12-02T02:10:31.400Z,1029.11
2022-12-02T02:11:31.370Z,1029.03
2022-12-02T02:12:31.359Z,1029.05
2022-12-02T02:13:31.340Z,1029.06
2022-12-02T02:14:31.330Z,1029.06
2022-12-02T02:15:31.319Z,1029.09
2022-12-02T02:16:31.367Z,1029.10
2022-12-02T02:17:31.309Z,1029.07
2022-12-02T02:18:31.279Z,1029.06
2022-12-02T02:19:31.266Z,1029.09
2022-12-02T02:20:31.265Z,1029.12
2022-12-02T02:21:31.260Z,1029.07
2022-12-02T02:22:31.276Z,1029.08
2022-12-02T02:23:31.212Z,1029.09
2022-12-02T02:24:31.218Z,1029.07
2022-12-02T02:25:31.200Z,1029.03
2022-12-02T02:26:31.194Z,1029.04
2022-12-02T02:27:31.238Z,1029.04
2022-12-02T02:28:31.170Z,1029.08
2022-12-02T02:29:31.179Z,1029.07
2022-12-02T02:30:31.232Z,1029.03
2022-12-02T02:31:31.154Z,1029.08
2022-12-02T02:32:31.131Z,1029.04
2022-12-02T02:33:31.158Z,1029.07
2022-12-02T02:34:31.118Z,1029.01
2022-12-02T02:35:31.113Z,1029.05
2022-12-02T02:36:31.102Z,1029.10
2022-12-02T02:37:31.095Z,1029.00
2022-12-02T02:38:31.084Z,1029.03
2022-12-02T02:39:31.114Z,1029.03
2022-12-02T02:40:31.035Z,1029.04
2022-12-02T02:41:31.043Z,1029.00
2022-12-02T02:42:31.029Z,1029.01
2022-12-02T02:43:31.012Z,1028.99
2022-12-02T02:44:31.008Z,1029.02
2022-12-02T02:45:31.031Z,1029.00
2022-12-02T02:46:31.046Z,1029.02
2022-12-02T02:47:30.963Z,1028.98
2022-12-02T02:48:30.966Z,1029.00
2022-12-02T02:49:30.963Z,1029.03
2022-12-02T02:50:30.924Z,1028.95
2022-12-02T02:51:30.975Z,1028.99
2022-12-02T02:52:30.915Z,1029.00
2022-12-02T02:53:30.917Z,1029.00
2022-12-02T02:54:30.896Z,1029.01
2022-12-02T02:55:30.892Z,1029.05
2022-12-02T02:56:30.935Z,1028.98
2022-12-02T02:57:30.886Z,1029.07
2022-12-02T02:58:30.854Z,1029.05
2022-12-02T02:59:30.828Z,1029.05
2022-12-02T03:00:30.827Z,1029.03
2022-12-02T03:01:30.872Z,1029.01
2022-12-02T03:02:30.847Z,1028.98
2022-12-02T03:03:30.849Z,1029.00
2022-12-02T03:04:30.785Z,1028.98
2022-12-02T03:05:30.777Z,1028.97
2022-12-02T03:06:30.755Z,1028.97
2022-12-02T03:07:30.807Z,1029.04
2022-12-02T03:08:30.748Z,1029.01
2022-12-02T03:09:30.801Z,1029.04
2022-12-02T03:10:30.748Z,1029.00
2022-12-02T03:11:30.720Z,1028.98
2022-12-02T03:12:30.719Z,1029.03
2022-12-02T03:13:30.726Z,1028.97
2022-12-02T03:14:30.681Z,1028.98
2022-12-02T03:15:30.737Z,1028.95
2022-12-02T03:16:30.717Z,1028.96
2022-12-02T03:17:30.665Z,1028.96
2022-12-02T03:18:30.633Z,1028.94
2022-12-02T03:19:30.644Z,1028.96
2022-12-02T03:20:30.621Z,1028.94
2022-12-02T03:21:30.660Z,1028.96
2022-12-02T03:22:30.590Z,1029.01
2022-12-02T03:23:30.581Z,1028.96
2022-12-02T03:24:30.570Z,1028.94
2022-12-02T03:25:30.567Z,1028.90
2022-12-02T03:26:30.558Z,1028.89
2022-12-02T03:27:30.579Z,1028.88
2022-12-02T03:28:30.528Z,1028.89
2022-12-02T03:29:30.531Z,1028.83
2022-12-02T03:30:30.536Z,1028.86
2022-12-02T03:31:30.600Z,1028.85
2022-12-02T03:32:30.490Z,1028.82
2022-12-02T03:33:30.511Z,1028.79
2022-12-02T03:34:30.459Z,1028.82
2022-12-02T03:35:30.460Z,1028.80
2022-12-02T03:36:30.451Z,1028.83
2022-12-02T03:37:30.430Z,1028.78
2022-12-02T03:38:30.422Z,1028.78
2022-12-02T03:39:30.441Z,1028.84
2022-12-02T03:40:30.388Z,1028.80
2022-12-02T03:41:30.395Z,1028.86
2022-12-02T03:42:30.373Z,1028.77
2022-12-02T03:43:30.375Z,1028.82
2022-12-02T03:44:30.369Z,1028.80
2022-12-02T03:45:30.372Z,1028.82
2022-12-02T03:46:30.407Z,1028.74
2022-12-02T03:47:30.337Z,1028.78
2022-12-02T03:48:30.315Z,1028.83
2022-12-02T03:49:30.314Z,1028.80
2022-12-02T03:50:30.286Z,1028.81
2022-12-02T03:51:30.323Z,1028.84
2022-12-02T03:52:30.262Z,1028.87
2022-12-02T03:53:30.269Z,1028.78
2022-12-02T03:54:30.240Z,1028.75
2022-12-02T03:55:30.235Z,1028.79
2022-12-02T03:56:30.234Z,1028.71
2022-12-02T03:57:30.257Z,1028.77
2022-12-02T03:58:30.210Z,1028.79
2022-12-02T03:59:30.206Z,1028.75
2022-12-02T04:00:30.220Z,1028.78
2022-12-02T04:01:30.233Z,1028.71
2022-12-02T04:02:30.225Z,1028.74
2022-12-02T04:03:30.194Z,1028.79
2022-12-02T04:04:30.144Z,1028.81
2022-12-02T04:05:30.139Z,1028.81
2022-12-02T04:06:30.127Z,1028.81
2022-12-02T04:07:30.148Z,1028.82
2022-12-02T04:08:30.114Z,1028.76
2022-12-02T04:09:30.104Z,1028.75
2022-12-02T04:10:30.072Z,1028.76
2022-12-02T04:11:30.067Z,1028.75
2022-12-02T04:12:30.057Z,1028.79
2022-12-02T04:13:37.604Z,1028.79
2022-12-02T04:14:30.004Z,1028.80
2022-12-02T04:15:37.109Z,1028.76
2022-12-02T04:16:30.061Z,1028.81
2022-12-02T04:17:37.576Z,1028.76
2022-12-02T04:18:30.015Z,1028.75
2022-12-02T04:19:30.031Z,1028.75
2022-12-02T04:20:29.967Z,1028.78
2022-12-02T04:21:29.976Z,1028.76
2022-12-02T04:22:29.962Z,1028.71
2022-12-02T04:23:29.935Z,1028.77
2022-12-02T04:24:29.951Z,1028.75
2022-12-02T04:25:29.976Z,1028.74
2022-12-02T04:26:29.911Z,1028.74
2022-12-02T04:27:29.924Z,1028.73
2022-12-02T04:28:29.884Z,1028.76
2022-12-02T04:29:29.895Z,1028.72
2022-12-02T04:30:29.860Z,1028.68
2022-12-02T04:31:29.955Z,1028.64
2022-12-02T04:32:29.844Z,1028.71
2022-12-02T04:33:29.848Z,1028.75
2022-12-02T04:34:29.817Z,1028.71
2022-12-02T04:35:29.823Z,1028.72
2022-12-02T04:36:29.818Z,1028.71
2022-12-02T04:37:29.835Z,1028.73
2022-12-02T04:38:29.775Z,1028.74
2022-12-02T04:39:29.777Z,1028.76
2022-12-02T04:40:29.797Z,1028.74
2022-12-02T04:41:29.757Z,1028.80
2022-12-02T04:42:29.751Z,1028.80
2022-12-02T04:43:29.789Z,1028.79
2022-12-02T04:44:29.753Z,1028.76
2022-12-02T04:45:29.695Z,1028.75
2022-12-02T04:46:29.830Z,1028.80
2022-12-02T04:47:29.684Z,1028.74
2022-12-02T04:48:29.689Z,1028.75
2022-12-02T04:49:29.693Z,1028.71
2022-12-02T04:50:29.653Z,1028.69
2022-12-02T04:51:29.656Z,1028.69
2022-12-02T04:52:29.621Z,1028.68
2022-12-02T04:53:29.635Z,1028.70
2022-12-02T04:54:29.597Z,1028.68
2022-12-02T04:55:29.663Z,1028.76
2022-12-02T04:56:29.594Z,1028.72
2022-12-02T04:57:31.606Z,1028.68
2022-12-02T04:58:29.589Z,1028.77
2022-12-02T04:59:29.550Z,1028.74
2022-12-02T05:00:29.565Z,1028.70
2022-12-02T05:01:29.529Z,1028.71
2022-12-02T05:02:29.557Z,1028.77
2022-12-02T05:03:29.558Z,1028.70
2022-12-02T05:04:29.555Z,1028.73
2022-12-02T05:05:29.494Z,1028.69
2022-12-02T05:06:29.482Z,1028.73
2022-12-02T05:07:29.529Z,1028.74
2022-12-02T05:08:29.461Z,1028.74
2022-12-02T05:09:29.524Z,1028.78
2022-12-02T05:10:29.437Z,1028.75
2022-12-02T05:11:34.743Z,1028.79
2022-12-02T05:12:30.427Z,1028.79
2022-12-02T05:13:29.394Z,1028.79
2022-12-02T05:14:29.405Z,1028.81
2022-12-02T05:15:29.436Z,1028.77
2022-12-02T05:16:29.418Z,1028.82
2022-12-02T05:17:29.362Z,1028.80
2022-12-02T05:18:29.389Z,1028.79
2022-12-02T05:19:29.345Z,1028.83
2022-12-02T05:20:29.337Z,1028.83
2022-12-02T05:21:29.354Z,1028.79
2022-12-02T05:22:29.315Z,1028.81
2022-12-02T05:23:29.288Z,1028.77
2022-12-02T05:24:29.336Z,1028.73
2022-12-02T05:25:29.276Z,1028.76
2022-12-02T05:26:29.260Z,1028.78
2022-12-02T05:27:33.853Z,1028.80
2022-12-02T05:28:30.226Z,1028.78
2022-12-02T05:29:29.225Z,1028.81
2022-12-02T05:30:29.282Z,1028.81
2022-12-02T05:31:29.354Z,1028.87
2022-12-02T05:32:29.199Z,1028.84
2022-12-02T05:33:29.223Z,1028.86
2022-12-02T05:34:29.188Z,1028.82
2022-12-02T05:35:29.186Z,1028.86
2022-12-02T05:36:29.215Z,1028.89
2022-12-02T05:37:29.150Z,1028.87
2022-12-02T05:38:29.144Z,1028.87
2022-12-02T05:39:29.152Z,1028.88
2022-12-02T05:40:29.123Z,1028.83
2022-12-02T05:41:29.107Z,1028.83
2022-12-02T05:42:29.126Z,1028.92
2022-12-02T05:43:29.096Z,1028.87
2022-12-02T05:44:29.577Z,1028.87
2022-12-02T05:45:29.065Z,1028.88
2022-12-02T05:46:29.162Z,1028.83
2022-12-02T05:47:29.058Z,1028.83
2022-12-02T05:48:29.049Z,1028.86
2022-12-02T05:49:29.010Z,1028.79
2022-12-02T05:50:29.036Z,1028.82
2022-12-02T05:51:28.989Z,1028.76
2022-12-02T05:52:28.977Z,1028.79
2022-12-02T05:53:28.995Z,1028.78
2022-12-02T05:54:29.011Z,1028.76
2022-12-02T05:55:28.945Z,1028.68
2022-12-02T05:56:28.982Z,1028.75
2022-12-02T05:57:28.928Z,1028.64
2022-12-02T05:58:28.962Z,1028.71
2022-12-02T05:59:28.922Z,1028.63
2022-12-02T06:00:28.898Z,1028.67
2022-12-02T06:01:28.892Z,1028.63
2022-12-02T06:02:29.064Z,1028.67
2022-12-02T06:03:28.983Z,1028.70
2022-12-02T06:04:28.867Z,1028.74
2022-12-02T06:05:28.854Z,1028.73
2022-12-02T06:06:28.887Z,1028.75
2022-12-02T06:07:28.877Z,1028.73
2022-12-02T06:08:28.812Z,1028.71
2022-12-02T06:09:28.843Z,1028.69
2022-12-02T06:10:28.815Z,1028.75
2022-12-02T06:11:28.798Z,1028.73
2022-12-02T06:12:28.813Z,1028.77
2022-12-02T06:13:28.759Z,1028.78
2022-12-02T06:14:28.748Z,1028.78
2022-12-02T06:15:28.791Z,1028.78
2022-12-02T06:16:28.815Z,1028.70
2022-12-02T06:17:28.726Z,1028.81
2022-12-02T06:18:28.782Z,1028.78
2022-12-02T06:19:30.984Z,1028.83
2022-12-02T06:20:29.743Z,1028.80
2022-12-02T06:21:28.672Z,1028.79
2022-12-02T06:22:28.683Z,1028.83
2022-12-02T06:23:28.704Z,1028.89
2022-12-02T06:24:28.654Z,1028.90
2022-12-02T06:25:28.649Z,1028.86
2022-12-02T06:26:28.631Z,1028.88
2022-12-02T06:27:28.614Z,1028.89
2022-12-02T06:28:28.684Z,1028.86
2022-12-02T06:29:28.597Z,1028.88
2022-12-02T06:30:28.597Z,1028.89
2022-12-02T06:31:28.631Z,1028.94
2022-12-02T06:32:28.557Z,1028.87
2022-12-02T06:33:28.611Z,1028.90
2022-12-02T06:34:28.549Z,1028.81
2022-12-02T06:35:28.523Z,1028.89
2022-12-02T06:36:28.516Z,1028.89
2022-12-02T06:37:28.504Z,1028.90
2022-12-02T06:38:28.496Z,1028.94
2022-12-02T06:39:28.535Z,1028.93
2022-12-02T06:40:29.474Z,1028.96
2022-12-02T06:41:28.510Z,1028.91
2022-12-02T06:42:28.469Z,1028.92
2022-12-02T06:43:28.442Z,1028.93
2022-12-02T06:44:28.447Z,1028.94
2022-12-02T06:45:29.748Z,1028.97
2022-12-02T06:46:28.507Z,1028.94
2022-12-02T06:47:28.393Z,1028.96
2022-12-02T06:48:28.459Z,1028.94
2022-12-02T06:49:28.482Z,1028.94
2022-12-02T06:50:28.542Z,1028.98
2022-12-02T06:51:28.410Z,1028.99
2022-12-02T06:52:28.354Z,1029.02
2022-12-02T06:53:28.337Z,1028.99
2022-12-02T06:54:28.338Z,1029.02
2022-12-02T06:55:28.316Z,1029.07
2022-12-02T06:56:28.327Z,1029.11
2022-12-02T06:57:28.298Z,1029.09
2022-12-02T06:58:28.286Z,1029.05
2022-12-02T06:59:28.267Z,1029.08
2022-12-02T07:00:28.263Z,1029.06
2022-12-02T07:01:28.340Z,1029.04
2022-12-02T07:02:28.295Z,1029.09
2022-12-02T07:03:28.240Z,1029.01
2022-12-02T07:04:28.219Z,1029.00
2022-12-02T07:05:28.206Z,1028.97
2022-12-02T07:06:28.264Z,1028.88
2022-12-02T07:07:28.306Z,1028.88
2022-12-02T07:08:28.189Z,1028.91
2022-12-02T07:09:28.177Z,1028.94
2022-12-02T07:10:28.169Z,1029.01
2022-12-02T07:11:28.157Z,1029.03
2022-12-02T07:12:28.159Z,1029.04
2022-12-02T07:13:28.134Z,1029.08
2022-12-02T07:14:28.122Z,1029.12
2022-12-02T07:15:28.104Z,1029.12
2022-12-02T07:16:28.158Z,1029.05
2022-12-02T07:17:28.081Z,1029.16
2022-12-02T07:18:28.108Z,1029.17
2022-12-02T07:19:28.069Z,1029.11
2022-12-02T07:20:28.041Z,1029.14
2022-12-02T07:21:28.083Z,1029.10
2022-12-02T07:22:28.032Z,1029.11
2022-12-02T07:23:28.063Z,1029.09
2022-12-02T07:24:28.003Z,1029.10
2022-12-02T07:25:28.014Z,1029.14
2022-12-02T07:26:27.992Z,1029.14
2022-12-02T07:27:27.979Z,1029.13
2022-12-02T07:28:28.028Z,1029.09
2022-12-02T07:29:27.953Z,1029.11
2022-12-02T07:30:28.015Z,1029.13
2022-12-02T07:31:27.978Z,1029.16
2022-12-02T07:32:27.936Z,1029.18
2022-12-02T07:33:27.964Z,1029.18
2022-12-02T07:34:33.927Z,1029.16
2022-12-02T07:35:28.893Z,1029.15
2022-12-02T07:36:27.881Z,1029.17
2022-12-02T07:37:27.879Z,1029.15
2022-12-02T07:38:57.578Z,1029.17
2022-12-02T07:39:28.842Z,1029.23
2022-12-02T07:40:27.891Z,1029.20
2022-12-02T07:41:30.705Z,1029.26
2022-12-02T07:42:28.826Z,1029.23
2022-12-02T07:43:27.806Z,1029.25
2022-12-02T07:44:27.841Z,1029.27
2022-12-02T07:45:27.787Z,1029.28
2022-12-02T07:46:27.800Z,1029.30
2022-12-02T07:47:27.758Z,1029.30
2022-12-02T07:48:27.755Z,1029.34
2022-12-02T07:49:27.793Z,1029.29
2022-12-02T07:50:27.729Z,1029.37
2022-12-02T07:51:27.732Z,1029.34
2022-12-02T07:52:27.717Z,1029.36
2022-12-02T07:53:27.699Z,1029.38
2022-12-02T07:54:27.720Z,1029.36
2022-12-02T07:55:27.687Z,1029.39
2022-12-02T07:56:27.675Z,1029.35
2022-12-02T07:57:27.661Z,1029.37
2022-12-02T07:58:48.389Z,1029.41
2022-12-02T07:59:28.660Z,1029.36
2022-12-02T08:00:27.674Z,1029.35
2022-12-02T08:01:27.673Z,1029.37
2022-12-02T08:02:27.597Z,1029.35
2022-12-02T08:03:27.585Z,1029.35
2022-12-02T08:04:27.616Z,1029.33
2022-12-02T08:05:27.620Z,1029.37
2022-12-02T08:06:27.549Z,1029.30
2022-12-02T08:07:27.591Z,1029.36
2022-12-02T08:08:27.542Z,1029.38
2022-12-02T08:09:27.562Z,1029.30
2022-12-02T08:10:27.516Z,1029.24
2022-12-02T08:11:27.540Z,1029.35
2022-12-02T08:12:27.507Z,1029.29
2022-12-02T08:13:27.488Z,1029.26
2022-12-02T08:14:27.469Z,1029.35
2022-12-02T08:15:27.479Z,1029.33
2022-12-02T08:16:27.460Z,1029.32
2022-12-02T08:17:27.459Z,1029.40
2022-12-02T08:18:27.421Z,1029.38
2022-12-02T08:19:27.425Z,1029.33
2022-12-02T08:20:27.410Z,1029.35
2022-12-02T08:21:27.401Z,1029.36
2022-12-02T08:22:27.413Z,1029.37
2022-12-02T08:23:27.409Z,1029.36
2022-12-02T08:24:27.385Z,1029.36
2022-12-02T08:25:27.376Z,1029.35
2022-12-02T08:26:27.343Z,1029.33
2022-12-02T08:27:27.370Z,1029.38
2022-12-02T08:28:27.331Z,1029.33
2022-12-02T08:29:27.334Z,1029.31
2022-12-02T08:30:27.312Z,1029.36
2022-12-02T08:31:27.311Z,1029.38
2022-12-02T08:32:27.292Z,1029.40
2022-12-02T08:33:27.303Z,1029.39
2022-12-02T08:34:27.263Z,1029.34
2022-12-02T08:35:27.257Z,1029.41
2022-12-02T08:36:27.241Z,1029.44
2022-12-02T08:37:27.245Z,1029.36
2022-12-02T08:38:27.203Z,1029.40
2022-12-02T08:39:27.245Z,1029.42
2022-12-02T08:40:27.220Z,1029.38
2022-12-02T08:41:27.237Z,1029.39
2022-12-02T08:42:27.174Z,1029.40
2022-12-02T08:43:27.195Z,1029.42
2022-12-02T08:44:27.164Z,1029.46
2022-12-02T08:45:27.176Z,1029.39
2022-12-02T08:46:27.216Z,1029.41
2022-12-02T08:47:27.174Z,1029.40
2022-12-02T08:48:27.092Z,1029.41
2022-12-02T08:49:27.112Z,1029.47
2022-12-02T08:50:27.083Z,1029.36
2022-12-02T08:51:27.085Z,1029.47
2022-12-02T08:52:27.095Z,1029.46
2022-12-02T08:53:27.093Z,1029.50
2022-12-02T08:54:27.096Z,1029.49
2022-12-02T08:55:27.035Z,1029.53
2022-12-02T08:56:27.076Z,1029.51
2022-12-02T08:57:27.045Z,1029.43
2022-12-02T08:58:27.018Z,1029.45
2022-12-02T08:59:27.011Z,1029.53
2022-12-02T09:00:26.983Z,1029.56
2022-12-02T09:01:27.014Z,1029.58
2022-12-02T09:02:27.056Z,1029.51
2022-12-02T09:03:27.186Z,1029.63
2022-12-02T09:04:26.942Z,1029.63
2022-12-02T09:05:26.927Z,1029.56
2022-12-02T09:06:26.930Z,1029.65
2022-12-02T09:07:26.959Z,1029.57
2022-12-02T09:08:26.968Z,1029.55
2022-12-02T09:09:26.899Z,1029.56
2022-12-02T09:10:26.911Z,1029.54
2022-12-02T09:11:26.868Z,1029.54
2022-12-02T09:12:26.860Z,1029.51
2022-12-02T09:13:26.850Z,1029.53
2022-12-02T09:14:26.864Z,1029.54
2022-12-02T09:15:26.811Z,1029.54
2022-12-02T09:16:26.879Z,1029.50
2022-12-02T09:17:26.873Z,1029.49
2022-12-02T09:18:26.791Z,1029.46
2022-12-02T09:19:26.800Z,1029.52
2022-12-02T09:20:26.799Z,1029.49
2022-12-02T09:21:26.775Z,1029.50
2022-12-02T09:22:26.766Z,1029.49
2022-12-02T09:23:26.748Z,1029.48
2022-12-02T09:24:26.741Z,1029.41
2022-12-02T09:25:26.719Z,1029.42
2022-12-02T09:26:26.741Z,1029.46
2022-12-02T09:27:26.704Z,1029.47
2022-12-02T09:28:26.689Z,1029.40
2022-12-02T09:29:26.682Z,1029.45
2022-12-02T09:30:26.670Z,1029.42
2022-12-02T09:31:26.703Z,1029.40
2022-12-02T09:32:26.702Z,1029.37
2022-12-02T09:33:32.299Z,1029.40
2022-12-02T09:34:27.647Z,1029.36
2022-12-02T09:35:26.603Z,1029.36
2022-12-02T09:36:26.621Z,1029.45
2022-12-02T09:37:26.635Z,1029.47
2022-12-02T09:38:26.580Z,1029.36
2022-12-02T09:39:26.596Z,1029.42
2022-12-02T09:40:26.567Z,1029.37
2022-12-02T09:41:26.556Z,1029.34
2022-12-02T09:42:26.551Z,1029.36
2022-12-02T09:43:26.567Z,1029.39
2022-12-02T09:44:26.525Z,1029.40
2022-12-02T09:45:26.492Z,1029.41
2022-12-02T09:46:26.563Z,1029.42
2022-12-02T09:47:26.483Z,1029.42
2022-12-02T09:48:26.475Z,1029.47
2022-12-02T09:49:26.513Z,1029.43
2022-12-02T09:50:26.459Z,1029.44
2022-12-02T09:51:26.448Z,1029.44
2022-12-02T09:52:26.796Z,1029.42
2022-12-02T09:53:26.476Z,1029.44
2022-12-02T09:54:26.417Z,1029.47
2022-12-02T09:55:26.391Z,1029.42
2022-12-02T09:56:26.375Z,1029.42
2022-12-02T09:57:26.412Z,1029.44
2022-12-02T09:58:26.366Z,1029.43
2022-12-02T09:59:26.347Z,1029.37
2022-12-02T10:00:26.346Z,1029.47
2022-12-02T10:01:26.389Z,1029.48
2022-12-02T10:02:26.418Z,1029.37
2022-12-02T10:03:26.355Z,1029.34
2022-12-02T10:04:26.301Z,1029.34
2022-12-02T10:05:26.300Z,1029.38
2022-12-02T10:06:26.265Z,1029.34
2022-12-02T10:07:26.359Z,1029.37
2022-12-02T10:08:26.257Z,1029.34
2022-12-02T10:09:26.238Z,1029.29
2022-12-02T10:10:26.247Z,1029.33
2022-12-02T10:11:26.246Z,1029.39
2022-12-02T10:12:26.238Z,1029.35
2022-12-02T10:13:26.217Z,1029.28
2022-12-02T10:14:26.209Z,1029.19
2022-12-02T10:15:26.188Z,1029.24
2022-12-02T10:16:26.228Z,1029.29
2022-12-02T10:17:26.189Z,1029.28
2022-12-02T10:18:26.137Z,1029.32
2022-12-02T10:19:26.137Z,1029.24
2022-12-02T10:20:26.167Z,1029.27
2022-12-02T10:21:26.111Z,1029.22
2022-12-02T10:22:26.111Z,1029.23
2022-12-02T10:23:26.147Z,1029.22
2022-12-02T10:24:26.100Z,1029.23
2022-12-02T10:25:26.086Z,1029.24
2022-12-02T10:26:26.074Z,1029.25
2022-12-02T10:27:26.223Z,1029.21
2022-12-02T10:28:26.045Z,1029.14
2022-12-02T10:29:26.045Z,1029.20
2022-12-02T10:30:26.031Z,1029.21
2022-12-02T10:31:26.062Z,1029.25
2022-12-02T10:32:26.004Z,1029.25
2022-12-02T10:33:26.051Z,1029.23
2022-12-02T10:34:25.998Z,1029.28
2022-12-02T10:35:25.971Z,1029.15
2022-12-02T10:36:25.957Z,1029.12
2022-12-02T10:37:25.961Z,1029.16
2022-12-02T10:38:25.991Z,1029.14
2022-12-02T10:39:25.935Z,1029.17
2022-12-02T10:40:25.913Z,1029.16
2022-12-02T10:41:25.903Z,1029.14
2022-12-02T10:42:25.898Z,1029.18
2022-12-02T10:43:25.953Z,1029.18
2022-12-02T10:44:25.872Z,1029.12
2022-12-02T10:45:25.871Z,1029.12
2022-12-02T10:46:25.897Z,1029.16
2022-12-02T10:47:27.046Z,1029.13
2022-12-02T10:48:25.813Z,1029.08
2022-12-02T10:49:25.873Z,1029.11
2022-12-02T10:50:25.814Z,1029.05
2022-12-02T10:51:25.805Z,1029.04
2022-12-02T10:52:25.783Z,1029.10
2022-12-02T10:53:25.784Z,1029.09
2022-12-02T10:54:25.782Z,1029.07
2022-12-02T10:55:25.761Z,1029.05
2022-12-02T10:56:25.744Z,1029.06
2022-12-02T10:57:25.733Z,1029.02
2022-12-02T10:58:25.771Z,1029.06
2022-12-02T10:59:25.766Z,1029.06
2022-12-02T11:00:25.918Z,1029.03
2022-12-02T11:01:25.737Z,1029.10
2022-12-02T11:02:25.732Z,1029.07
2022-12-02T11:03:25.674Z,1029.08
2022-12-02T11:04:25.738Z,1029.05
2022-12-02T11:05:25.656Z,1029.01
2022-12-02T11:06:25.646Z,1029.00
2022-12-02T11:07:25.702Z,1029.05
2022-12-02T11:08:25.682Z,1029.06
2022-12-02T11:09:39.986Z,1029.07
2022-12-02T11:10:26.597Z,1029.09
2022-12-02T11:11:25.596Z,1029.05
2022-12-02T11:12:25.600Z,1029.06
2022-12-02T11:13:25.569Z,1029.06
2022-12-02T11:14:25.587Z,1028.97
2022-12-02T11:15:25.565Z,1029.01
2022-12-02T11:16:25.599Z,1029.02
2022-12-02T11:17:25.529Z,1029.00
2022-12-02T11:18:25.508Z,1029.01
2022-12-02T11:19:25.559Z,1029.01
2022-12-02T11:20:25.497Z,1029.00
2022-12-02T11:21:25.482Z,1029.03
2022-12-02T11:22:25.469Z,1029.01
2022-12-02T11:23:25.522Z,1029.04
2022-12-02T11:24:25.451Z,1029.00
2022-12-02T11:25:25.439Z,1029.00
2022-12-02T11:26:25.432Z,1028.94
2022-12-02T11:27:25.408Z,1028.92
2022-12-02T11:28:25.398Z,1028.94
2022-12-02T11:29:25.433Z,1028.88
2022-12-02T11:30:25.386Z,1028.85
2022-12-02T11:31:25.489Z,1028.86
2022-12-02T11:32:25.355Z,1028.85
2022-12-02T11:33:25.358Z,1028.87
2022-12-02T11:34:25.370Z,1028.90
2022-12-02T11:35:25.809Z,1028.90
2022-12-02T11:36:25.344Z,1028.87
2022-12-02T11:37:25.317Z,1028.87
2022-12-02T11:38:25.307Z,1028.93
2022-12-02T11:39:25.282Z,1028.87
2022-12-02T11:40:25.331Z,1028.88
2022-12-02T11:41:25.256Z,1028.87
2022-12-02T11:42:25.247Z,1028.86
2022-12-02T11:43:25.252Z,1028.89
2022-12-02T11:44:25.231Z,1028.88
2022-12-02T11:45:25.304Z,1028.88
2022-12-02T11:46:25.224Z,1028.81
2022-12-02T11:47:25.204Z,1028.84
2022-12-02T11:48:25.182Z,1028.86
2022-12-02T11:49:25.173Z,1028.90
2022-12-02T11:50:25.163Z,1028.88
2022-12-02T11:51:25.194Z,1028.93
2022-12-02T11:52:25.150Z,1028.87
2022-12-02T11:53:25.132Z,1028.85
2022-12-02T11:54:25.126Z,1028.80
2022-12-02T11:55:25.108Z,1028.81
2022-12-02T11:56:25.156Z,1028.78
2022-12-02T11:57:25.103Z,1028.75
2022-12-02T11:58:25.104Z,1028.78
2022-12-02T11:59:25.073Z,1028.73
2022-12-02T12:00:25.054Z,1028.77
2022-12-02T12:01:25.108Z,1028.73
2022-12-02T12:02:25.141Z,1028.74
2022-12-02T12:03:25.061Z,1028.69
2022-12-02T12:04:25.027Z,1028.67
2022-12-02T12:05:25.043Z,1028.68